sensor_id;sensor_type;location;lat;lon;timestamp;P1;durP1;ratioP1;P2;durP2;ratioP2
26702;SDS011;14316;51.074;3.704;2023-02-28T00:00:05;6.68;;;5.35;;
26702;SDS011;14316;51.074;3.704;2023-02-28T00:02:35;9.88;;;5.63;;
26702;SDS011;14316;51.074;3.704;2023-02-28T00:05:02;6.78;;;5.30;;
26702;SDS011;14316;51.074;3.704;2023-02-28T00:07:28;8.50;;;5.45;;
26702;SDS011;14316;51.074;3.704;2023-02-28T00:09:55;7.03;;;5.13;;
26702;SDS011;14316;51.074;3.704;2023-02-28T00:12:21;6.28;;;5.40;;
26702;SDS011;14316;51.074;3.704;2023-02-28T00:14:47;6.93;;;5.80;;
26702;SDS011;14316;51.074;3.704;2023-02-28T00:17:14;7.55;;;5.78;;
26702;SDS011;14316;51.074;3.704;2023-02-28T00:19:39;7.80;;;5.88;;
26702;SDS011;14316;51.074;3.704;2023-02-28T00:22:05;10.13;;;6.70;;
26702;SDS011;14316;51.074;3.704;2023-02-28T00:24:31;8.52;;;6.63;;
26702;SDS011;14316;51.074;3.704;2023-02-28T00:26:56;9.98;;;6.57;;
26702;SDS011;14316;51.074;3.704;2023-02-28T00:29:22;10.32;;;6.93;;
26702;SDS011;14316;51.074;3.704;2023-02-28T00:31:49;10.60;;;7.18;;
26702;SDS011;14316;51.074;3.704;2023-02-28T00:34:14;9.57;;;6.97;;
26702;SDS011;14316;51.074;3.704;2023-02-28T00:36:40;9.05;;;6.72;;
26702;SDS011;14316;51.074;3.704;2023-02-28T00:39:10;11.05;;;6.80;;
26702;SDS011;14316;51.074;3.704;2023-02-28T00:41:36;10.07;;;7.18;;
26702;SDS011;14316;51.074;3.704;2023-02-28T00:44:02;12.60;;;7.05;;
26702;SDS011;14316;51.074;3.704;2023-02-28T00:46:28;8.20;;;6.70;;
26702;SDS011;14316;51.074;3.704;2023-02-28T00:48:53;10.75;;;6.72;;
26702;SDS011;14316;51.074;3.704;2023-02-28T00:51:19;8.15;;;6.65;;
26702;SDS011;14316;51.074;3.704;2023-02-28T00:53:44;11.85;;;7.47;;
26702;SDS011;14316;51.074;3.704;2023-02-28T00:56:10;9.20;;;7.18;;
26702;SDS011;14316;51.074;3.704;2023-02-28T00:58:36;10.68;;;6.70;;
26702;SDS011;14316;51.074;3.704;2023-02-28T01:01:02;10.50;;;7.38;;
26702;SDS011;14316;51.074;3.704;2023-02-28T01:03:28;12.30;;;6.50;;
26702;SDS011;14316;51.074;3.704;2023-02-28T01:05:54;9.57;;;6.65;;
26702;SDS011;14316;51.074;3.704;2023-02-28T01:08:20;10.38;;;6.95;;
26702;SDS011;14316;51.074;3.704;2023-02-28T01:10:46;7.55;;;6.75;;
26702;SDS011;14316;51.074;3.704;2023-02-28T01:13:12;8.95;;;6.95;;
26702;SDS011;14316;51.074;3.704;2023-02-28T01:15:43;13.15;;;7.25;;
26702;SDS011;14316;51.074;3.704;2023-02-28T01:18:14;10.70;;;7.40;;
26702;SDS011;14316;51.074;3.704;2023-02-28T01:20:40;11.35;;;6.80;;
26702;SDS011;14316;51.074;3.704;2023-02-28T01:23:05;8.85;;;7.22;;
26702;SDS011;14316;51.074;3.704;2023-02-28T01:25:33;11.00;;;7.75;;
26702;SDS011;14316;51.074;3.704;2023-02-28T01:28:00;12.50;;;7.78;;
26702;SDS011;14316;51.074;3.704;2023-02-28T01:30:26;13.98;;;7.80;;
26702;SDS011;14316;51.074;3.704;2023-02-28T01:32:51;13.05;;;8.82;;
26702;SDS011;14316;51.074;3.704;2023-02-28T01:35:18;10.50;;;8.32;;
26702;SDS011;14316;51.074;3.704;2023-02-28T01:37:45;13.80;;;7.88;;
26702;SDS011;14316;51.074;3.704;2023-02-28T01:40:11;11.13;;;8.27;;
26702;SDS011;14316;51.074;3.704;2023-02-28T01:42:37;13.13;;;8.82;;
26702;SDS011;14316;51.074;3.704;2023-02-28T01:45:45;14.23;;;9.55;;
26702;SDS011;14316;51.074;3.704;2023-02-28T01:47:55;11.27;;;8.75;;
26702;SDS011;14316;51.074;3.704;2023-02-28T01:50:27;12.57;;;8.63;;
26702;SDS011;14316;51.074;3.704;2023-02-28T01:52:55;10.90;;;8.32;;
26702;SDS011;14316;51.074;3.704;2023-02-28T01:55:25;11.77;;;7.72;;
26702;SDS011;14316;51.074;3.704;2023-02-28T01:57:54;11.63;;;8.20;;
26702;SDS011;14316;51.074;3.704;2023-02-28T02:00:24;8.15;;;7.20;;
26702;SDS011;14316;51.074;3.704;2023-02-28T02:02:55;9.57;;;7.20;;
26702;SDS011;14316;51.074;3.704;2023-02-28T02:05:26;12.27;;;8.50;;
26702;SDS011;14316;51.074;3.704;2023-02-28T02:07:57;12.43;;;8.07;;
26702;SDS011;14316;51.074;3.704;2023-02-28T02:10:31;9.50;;;7.43;;
26702;SDS011;14316;51.074;3.704;2023-02-28T02:32:41;11.23;;;8.32;;
26702;SDS011;14316;51.074;3.704;2023-02-28T02:40:43;10.98;;;7.75;;
26702;SDS011;14316;51.074;3.704;2023-02-28T02:43:32;10.88;;;8.35;;
26702;SDS011;14316;51.074;3.704;2023-02-28T02:45:59;12.65;;;7.72;;
26702;SDS011;14316;51.074;3.704;2023-02-28T02:48:31;12.32;;;8.38;;
26702;SDS011;14316;51.074;3.704;2023-02-28T02:50:59;13.05;;;8.45;;
26702;SDS011;14316;51.074;3.704;2023-02-28T02:53:30;12.77;;;8.77;;
26702;SDS011;14316;51.074;3.704;2023-02-28T02:56:01;11.63;;;8.50;;
26702;SDS011;14316;51.074;3.704;2023-02-28T02:58:35;9.98;;;7.85;;
26702;SDS011;14316;51.074;3.704;2023-02-28T03:01:07;11.63;;;8.80;;
26702;SDS011;14316;51.074;3.704;2023-02-28T03:03:40;10.40;;;8.05;;
26702;SDS011;14316;51.074;3.704;2023-02-28T03:06:06;11.15;;;8.48;;
26702;SDS011;14316;51.074;3.704;2023-02-28T03:08:34;9.82;;;7.80;;
26702;SDS011;14316;51.074;3.704;2023-02-28T03:11:03;13.05;;;8.75;;
26702;SDS011;14316;51.074;3.704;2023-02-28T03:27:08;11.25;;;8.38;;
26702;SDS011;14316;51.074;3.704;2023-02-28T03:29:39;11.70;;;9.77;;
26702;SDS011;14316;51.074;3.704;2023-02-28T03:32:21;12.32;;;9.52;;
26702;SDS011;14316;51.074;3.704;2023-02-28T03:34:59;11.70;;;8.98;;
26702;SDS011;14316;51.074;3.704;2023-02-28T03:37:37;11.40;;;8.85;;
26702;SDS011;14316;51.074;3.704;2023-02-28T03:40:13;11.63;;;9.02;;
26702;SDS011;14316;51.074;3.704;2023-02-28T03:42:42;9.65;;;8.43;;
26702;SDS011;14316;51.074;3.704;2023-02-28T03:45:16;10.45;;;8.20;;
26702;SDS011;14316;51.074;3.704;2023-02-28T03:50:38;10.00;;;8.88;;
26702;SDS011;14316;51.074;3.704;2023-02-28T03:53:10;11.82;;;9.20;;
26702;SDS011;14316;51.074;3.704;2023-02-28T03:55:38;17.10;;;14.03;;
26702;SDS011;14316;51.074;3.704;2023-02-28T04:01:13;10.07;;;8.80;;
26702;SDS011;14316;51.074;3.704;2023-02-28T04:03:44;12.93;;;8.52;;
26702;SDS011;14316;51.074;3.704;2023-02-28T04:06:13;10.63;;;8.30;;
26702;SDS011;14316;51.074;3.704;2023-02-28T04:08:42;10.15;;;8.80;;
26702;SDS011;14316;51.074;3.704;2023-02-28T04:11:12;15.18;;;9.85;;
26702;SDS011;14316;51.074;3.704;2023-02-28T04:14:10;13.63;;;8.90;;
26702;SDS011;14316;51.074;3.704;2023-02-28T04:16:37;10.65;;;8.60;;
26702;SDS011;14316;51.074;3.704;2023-02-28T04:19:05;13.45;;;7.90;;
26702;SDS011;14316;51.074;3.704;2023-02-28T04:21:33;11.88;;;8.75;;
26702;SDS011;14316;51.074;3.704;2023-02-28T04:24:05;10.95;;;8.13;;
26702;SDS011;14316;51.074;3.704;2023-02-28T04:26:32;13.95;;;8.98;;
26702;SDS011;14316;51.074;3.704;2023-02-28T04:28:59;10.43;;;8.55;;
26702;SDS011;14316;51.074;3.704;2023-02-28T04:31:25;14.70;;;9.00;;
26702;SDS011;14316;51.074;3.704;2023-02-28T04:33:52;12.80;;;8.57;;
26702;SDS011;14316;51.074;3.704;2023-02-28T04:36:17;11.63;;;9.02;;
26702;SDS011;14316;51.074;3.704;2023-02-28T04:38:44;14.43;;;10.00;;
26702;SDS011;14316;51.074;3.704;2023-02-28T04:41:10;11.23;;;8.90;;
26702;SDS011;14316;51.074;3.704;2023-02-28T04:43:36;11.38;;;9.38;;
26702;SDS011;14316;51.074;3.704;2023-02-28T04:46:03;10.13;;;9.02;;
26702;SDS011;14316;51.074;3.704;2023-02-28T04:48:31;12.43;;;8.95;;
26702;SDS011;14316;51.074;3.704;2023-02-28T04:51:02;13.10;;;8.90;;
26702;SDS011;14316;51.074;3.704;2023-02-28T04:53:29;11.77;;;8.45;;
26702;SDS011;14316;51.074;3.704;2023-02-28T04:55:55;9.93;;;8.50;;
26702;SDS011;14316;51.074;3.704;2023-02-28T04:58:21;12.10;;;8.55;;
26702;SDS011;14316;51.074;3.704;2023-02-28T05:00:49;11.88;;;9.07;;
26702;SDS011;14316;51.074;3.704;2023-02-28T05:03:15;12.23;;;8.85;;
26702;SDS011;14316;51.074;3.704;2023-02-28T05:05:41;11.52;;;8.88;;
26702;SDS011;14316;51.074;3.704;2023-02-28T05:08:06;9.95;;;8.85;;
26702;SDS011;14316;51.074;3.704;2023-02-28T05:10:32;13.50;;;9.55;;
26702;SDS011;14316;51.074;3.704;2023-02-28T05:12:58;13.50;;;9.43;;
26702;SDS011;14316;51.074;3.704;2023-02-28T05:15:23;10.10;;;8.57;;
26702;SDS011;14316;51.074;3.704;2023-02-28T05:17:49;12.10;;;9.20;;
26702;SDS011;14316;51.074;3.704;2023-02-28T05:20:15;11.15;;;8.98;;
26702;SDS011;14316;51.074;3.704;2023-02-28T05:22:42;12.20;;;9.38;;
26702;SDS011;14316;51.074;3.704;2023-02-28T05:25:12;10.88;;;8.57;;
26702;SDS011;14316;51.074;3.704;2023-02-28T05:27:41;12.20;;;9.60;;
26702;SDS011;14316;51.074;3.704;2023-02-28T05:30:06;10.90;;;8.70;;
26702;SDS011;14316;51.074;3.704;2023-02-28T05:32:35;13.15;;;9.55;;
26702;SDS011;14316;51.074;3.704;2023-02-28T05:35:02;14.77;;;8.88;;
26702;SDS011;14316;51.074;3.704;2023-02-28T05:37:29;11.88;;;8.75;;
26702;SDS011;14316;51.074;3.704;2023-02-28T05:39:54;13.73;;;9.15;;
26702;SDS011;14316;51.074;3.704;2023-02-28T05:42:20;11.73;;;8.50;;
26702;SDS011;14316;51.074;3.704;2023-02-28T05:44:46;13.05;;;8.80;;
26702;SDS011;14316;51.074;3.704;2023-02-28T05:47:12;12.70;;;8.88;;
26702;SDS011;14316;51.074;3.704;2023-02-28T05:49:40;14.32;;;8.95;;
26702;SDS011;14316;51.074;3.704;2023-02-28T05:52:06;15.57;;;8.48;;
26702;SDS011;14316;51.074;3.704;2023-02-28T05:54:32;13.05;;;8.73;;
26702;SDS011;14316;51.074;3.704;2023-02-28T05:56:58;14.23;;;8.65;;
26702;SDS011;14316;51.074;3.704;2023-02-28T05:59:24;12.68;;;8.45;;
26702;SDS011;14316;51.074;3.704;2023-02-28T06:01:50;13.90;;;8.40;;
26702;SDS011;14316;51.074;3.704;2023-02-28T06:04:18;13.18;;;8.85;;
26702;SDS011;14316;51.074;3.704;2023-02-28T06:06:45;12.55;;;9.52;;
26702;SDS011;14316;51.074;3.704;2023-02-28T06:09:12;13.32;;;9.82;;
26702;SDS011;14316;51.074;3.704;2023-02-28T06:11:38;14.20;;;9.10;;
26702;SDS011;14316;51.074;3.704;2023-02-28T06:14:04;20.60;;;9.65;;
26702;SDS011;14316;51.074;3.704;2023-02-28T06:16:31;15.63;;;9.90;;
26702;SDS011;14316;51.074;3.704;2023-02-28T06:18:59;14.02;;;9.57;;
26702;SDS011;14316;51.074;3.704;2023-02-28T06:21:27;11.68;;;8.60;;
26702;SDS011;14316;51.074;3.704;2023-02-28T06:23:54;12.63;;;8.48;;
26702;SDS011;14316;51.074;3.704;2023-02-28T06:26:21;11.48;;;8.07;;
26702;SDS011;14316;51.074;3.704;2023-02-28T06:28:47;13.90;;;8.77;;
26702;SDS011;14316;51.074;3.704;2023-02-28T06:31:13;13.60;;;8.63;;
26702;SDS011;14316;51.074;3.704;2023-02-28T06:33:40;16.02;;;8.60;;
26702;SDS011;14316;51.074;3.704;2023-02-28T06:36:08;10.60;;;7.97;;
26702;SDS011;14316;51.074;3.704;2023-02-28T06:38:35;17.45;;;8.48;;
26702;SDS011;14316;51.074;3.704;2023-02-28T06:41:00;16.42;;;8.85;;
26702;SDS011;14316;51.074;3.704;2023-02-28T06:43:31;12.32;;;8.30;;
26702;SDS011;14316;51.074;3.704;2023-02-28T06:46:00;13.50;;;7.72;;
26702;SDS011;14316;51.074;3.704;2023-02-28T06:48:27;15.13;;;8.70;;
26702;SDS011;14316;51.074;3.704;2023-02-28T06:51:10;15.93;;;8.55;;
26702;SDS011;14316;51.074;3.704;2023-02-28T06:53:39;12.15;;;7.50;;
26702;SDS011;14316;51.074;3.704;2023-02-28T06:56:06;11.05;;;7.93;;
26702;SDS011;14316;51.074;3.704;2023-02-28T06:58:34;13.82;;;8.13;;
26702;SDS011;14316;51.074;3.704;2023-02-28T07:01:01;11.07;;;6.90;;
26702;SDS011;14316;51.074;3.704;2023-02-28T07:03:27;12.90;;;7.82;;
26702;SDS011;14316;51.074;3.704;2023-02-28T07:05:53;17.77;;;6.80;;
26702;SDS011;14316;51.074;3.704;2023-02-28T07:08:18;12.45;;;7.20;;
26702;SDS011;14316;51.074;3.704;2023-02-28T07:10:44;17.13;;;7.60;;
26702;SDS011;14316;51.074;3.704;2023-02-28T07:13:10;11.65;;;6.78;;
26702;SDS011;14316;51.074;3.704;2023-02-28T07:15:36;11.85;;;6.60;;
26702;SDS011;14316;51.074;3.704;2023-02-28T07:18:03;12.02;;;6.25;;
26702;SDS011;14316;51.074;3.704;2023-02-28T07:20:29;13.35;;;6.57;;
26702;SDS011;14316;51.074;3.704;2023-02-28T07:22:55;12.95;;;6.20;;
26702;SDS011;14316;51.074;3.704;2023-02-28T07:25:22;17.63;;;6.40;;
26702;SDS011;14316;51.074;3.704;2023-02-28T07:27:48;9.15;;;5.85;;
26702;SDS011;14316;51.074;3.704;2023-02-28T07:30:14;16.10;;;6.35;;
26702;SDS011;14316;51.074;3.704;2023-02-28T07:32:39;10.18;;;5.68;;
26702;SDS011;14316;51.074;3.704;2023-02-28T07:35:06;9.60;;;5.70;;
26702;SDS011;14316;51.074;3.704;2023-02-28T07:37:32;12.40;;;5.88;;
26702;SDS011;14316;51.074;3.704;2023-02-28T07:40:01;14.15;;;5.13;;
26702;SDS011;14316;51.074;3.704;2023-02-28T07:42:31;10.77;;;4.75;;
26702;SDS011;14316;51.074;3.704;2023-02-28T07:44:57;13.30;;;4.07;;
26702;SDS011;14316;51.074;3.704;2023-02-28T07:47:24;10.05;;;3.72;;
26702;SDS011;14316;51.074;3.704;2023-02-28T07:49:50;11.18;;;4.40;;
26702;SDS011;14316;51.074;3.704;2023-02-28T07:52:15;7.70;;;4.20;;
26702;SDS011;14316;51.074;3.704;2023-02-28T07:54:41;8.32;;;3.65;;
26702;SDS011;14316;51.074;3.704;2023-02-28T07:57:06;7.15;;;4.10;;
26702;SDS011;14316;51.074;3.704;2023-02-28T07:59:32;5.57;;;4.18;;
26702;SDS011;14316;51.074;3.704;2023-02-28T08:01:58;16.35;;;5.47;;
26702;SDS011;14316;51.074;3.704;2023-02-28T08:04:24;16.63;;;5.57;;
26702;SDS011;14316;51.074;3.704;2023-02-28T08:06:50;10.75;;;4.72;;
26702;SDS011;14316;51.074;3.704;2023-02-28T08:09:19;16.48;;;5.13;;
26702;SDS011;14316;51.074;3.704;2023-02-28T08:11:45;14.77;;;5.35;;
26702;SDS011;14316;51.074;3.704;2023-02-28T08:14:11;14.93;;;5.70;;
26702;SDS011;14316;51.074;3.704;2023-02-28T08:16:37;8.70;;;5.07;;
26702;SDS011;14316;51.074;3.704;2023-02-28T08:19:03;9.68;;;5.55;;
26702;SDS011;14316;51.074;3.704;2023-02-28T08:21:29;10.00;;;5.97;;
26702;SDS011;14316;51.074;3.704;2023-02-28T08:23:55;8.75;;;5.65;;
26702;SDS011;14316;51.074;3.704;2023-02-28T08:26:22;8.05;;;5.70;;
26702;SDS011;14316;51.074;3.704;2023-02-28T08:28:48;6.80;;;5.80;;
26702;SDS011;14316;51.074;3.704;2023-02-28T08:31:14;9.30;;;5.53;;
26702;SDS011;14316;51.074;3.704;2023-02-28T08:33:41;13.38;;;6.00;;
26702;SDS011;14316;51.074;3.704;2023-02-28T08:36:08;9.80;;;6.40;;
26702;SDS011;14316;51.074;3.704;2023-02-28T08:38:34;13.52;;;6.32;;
26702;SDS011;14316;51.074;3.704;2023-02-28T08:41:02;11.95;;;6.30;;
26702;SDS011;14316;51.074;3.704;2023-02-28T08:43:32;11.38;;;6.65;;
26702;SDS011;14316;51.074;3.704;2023-02-28T08:45:58;7.32;;;5.85;;
26702;SDS011;14316;51.074;3.704;2023-02-28T08:48:28;12.55;;;6.47;;
26702;SDS011;14316;51.074;3.704;2023-02-28T08:50:58;18.67;;;7.15;;
26702;SDS011;14316;51.074;3.704;2023-02-28T08:53:29;10.88;;;6.50;;
26702;SDS011;14316;51.074;3.704;2023-02-28T08:55:56;9.18;;;6.70;;
26702;SDS011;14316;51.074;3.704;2023-02-28T08:58:26;7.65;;;5.90;;
26702;SDS011;14316;51.074;3.704;2023-02-28T09:00:52;11.00;;;6.45;;
26702;SDS011;14316;51.074;3.704;2023-02-28T09:03:18;10.90;;;7.57;;
26702;SDS011;14316;51.074;3.704;2023-02-28T09:05:54;9.40;;;5.95;;
26702;SDS011;14316;51.074;3.704;2023-02-28T09:08:24;8.93;;;6.55;;
26702;SDS011;14316;51.074;3.704;2023-02-28T09:10:51;8.90;;;6.53;;
26702;SDS011;14316;51.074;3.704;2023-02-28T09:13:18;9.95;;;6.70;;
26702;SDS011;14316;51.074;3.704;2023-02-28T09:15:44;12.48;;;6.68;;
26702;SDS011;14316;51.074;3.704;2023-02-28T09:18:10;11.77;;;6.80;;
26702;SDS011;14316;51.074;3.704;2023-02-28T09:20:39;11.23;;;6.47;;
26702;SDS011;14316;51.074;3.704;2023-02-28T09:23:06;11.50;;;6.10;;
26702;SDS011;14316;51.074;3.704;2023-02-28T09:25:35;10.07;;;6.35;;
26702;SDS011;14316;51.074;3.704;2023-02-28T09:28:01;6.40;;;5.63;;
26702;SDS011;14316;51.074;3.704;2023-02-28T09:30:27;7.47;;;5.88;;
26702;SDS011;14316;51.074;3.704;2023-02-28T09:32:54;8.52;;;5.25;;
26702;SDS011;14316;51.074;3.704;2023-02-28T09:35:23;12.48;;;6.25;;
26702;SDS011;14316;51.074;3.704;2023-02-28T09:37:52;11.98;;;5.82;;
26702;SDS011;14316;51.074;3.704;2023-02-28T09:40:22;10.50;;;6.28;;
26702;SDS011;14316;51.074;3.704;2023-02-28T09:42:49;8.73;;;5.28;;
26702;SDS011;14316;51.074;3.704;2023-02-28T09:47:54;9.45;;;5.90;;
26702;SDS011;14316;51.074;3.704;2023-02-28T09:53:02;10.35;;;5.22;;
26702;SDS011;14316;51.074;3.704;2023-02-28T09:56:09;6.38;;;5.10;;
26702;SDS011;14316;51.074;3.704;2023-02-28T09:58:42;24.35;;;14.75;;
26702;SDS011;14316;51.074;3.704;2023-02-28T10:04:11;8.88;;;7.07;;
26702;SDS011;14316;51.074;3.704;2023-02-28T10:06:44;14.07;;;12.82;;
26702;SDS011;14316;51.074;3.704;2023-02-28T10:09:24;8.75;;;5.43;;
26702;SDS011;14316;51.074;3.704;2023-02-28T10:11:56;9.73;;;4.88;;
26702;SDS011;14316;51.074;3.704;2023-02-28T10:14:28;8.40;;;4.53;;
26702;SDS011;14316;51.074;3.704;2023-02-28T10:17:12;9.13;;;4.95;;
26702;SDS011;14316;51.074;3.704;2023-02-28T10:23:00;5.75;;;4.50;;
26702;SDS011;14316;51.074;3.704;2023-02-28T10:25:33;8.15;;;4.72;;
26702;SDS011;14316;51.074;3.704;2023-02-28T10:28:05;6.55;;;4.60;;
26702;SDS011;14316;51.074;3.704;2023-02-28T10:30:38;8.48;;;3.92;;
26702;SDS011;14316;51.074;3.704;2023-02-28T10:33:22;9.98;;;4.80;;
26702;SDS011;14316;51.074;3.704;2023-02-28T10:35:48;6.47;;;3.97;;
26702;SDS011;14316;51.074;3.704;2023-02-28T10:38:20;7.68;;;3.78;;
26702;SDS011;14316;51.074;3.704;2023-02-28T10:40:47;6.28;;;3.85;;
26702;SDS011;14316;51.074;3.704;2023-02-28T10:45:39;5.13;;;3.90;;
26702;SDS011;14316;51.074;3.704;2023-02-28T10:51:04;5.93;;;3.65;;
26702;SDS011;14316;51.074;3.704;2023-02-28T10:53:48;3.90;;;3.35;;
26702;SDS011;14316;51.074;3.704;2023-02-28T10:56:21;7.55;;;3.00;;
26702;SDS011;14316;51.074;3.704;2023-02-28T10:58:52;9.23;;;3.92;;
26702;SDS011;14316;51.074;3.704;2023-02-28T11:01:47;15.93;;;4.22;;
26702;SDS011;14316;51.074;3.704;2023-02-28T11:06:46;7.55;;;2.80;;
26702;SDS011;14316;51.074;3.704;2023-02-28T11:09:27;8.50;;;3.17;;
26702;SDS011;14316;51.074;3.704;2023-02-28T11:11:56;5.30;;;3.25;;
26702;SDS011;14316;51.074;3.704;2023-02-28T11:14:26;4.22;;;3.22;;
26702;SDS011;14316;51.074;3.704;2023-02-28T11:16:54;4.93;;;2.90;;
26702;SDS011;14316;51.074;3.704;2023-02-28T11:19:38;4.03;;;3.40;;
26702;SDS011;14316;51.074;3.704;2023-02-28T11:22:09;3.67;;;3.05;;
26702;SDS011;14316;51.074;3.704;2023-02-28T11:24:45;3.55;;;3.13;;
26702;SDS011;14316;51.074;3.704;2023-02-28T11:29:56;3.47;;;3.17;;
26702;SDS011;14316;51.074;3.704;2023-02-28T11:32:24;6.03;;;3.33;;
26702;SDS011;14316;51.074;3.704;2023-02-28T11:37:34;4.40;;;3.03;;
26702;SDS011;14316;51.074;3.704;2023-02-28T11:40:00;5.85;;;3.33;;
26702;SDS011;14316;51.074;3.704;2023-02-28T11:47:55;3.85;;;3.45;;
26702;SDS011;14316;51.074;3.704;2023-02-28T11:53:14;6.80;;;3.60;;
26702;SDS011;14316;51.074;3.704;2023-02-28T11:55:42;6.47;;;3.45;;
26702;SDS011;14316;51.074;3.704;2023-02-28T12:03:59;4.50;;;3.13;;
26702;SDS011;14316;51.074;3.704;2023-02-28T12:09:24;5.32;;;3.20;;
26702;SDS011;14316;51.074;3.704;2023-02-28T12:12:22;6.78;;;3.38;;
26702;SDS011;14316;51.074;3.704;2023-02-28T12:28:59;3.28;;;2.75;;
26702;SDS011;14316;51.074;3.704;2023-02-28T12:31:30;4.20;;;2.30;;
26702;SDS011;14316;51.074;3.704;2023-02-28T12:34:03;5.00;;;2.53;;
26702;SDS011;14316;51.074;3.704;2023-02-28T12:36:36;2.90;;;2.10;;
26702;SDS011;14316;51.074;3.704;2023-02-28T12:41:42;3.55;;;2.70;;
26702;SDS011;14316;51.074;3.704;2023-02-28T12:44:13;4.20;;;2.50;;
26702;SDS011;14316;51.074;3.704;2023-02-28T12:46:47;3.90;;;2.40;;
26702;SDS011;14316;51.074;3.704;2023-02-28T12:49:22;4.07;;;2.63;;
26702;SDS011;14316;51.074;3.704;2023-02-28T12:51:49;2.97;;;2.50;;
26702;SDS011;14316;51.074;3.704;2023-02-28T12:59:52;6.60;;;2.67;;
26702;SDS011;14316;51.074;3.704;2023-02-28T13:08:08;3.17;;;2.40;;
26702;SDS011;14316;51.074;3.704;2023-02-28T13:10:47;3.20;;;2.40;;
26702;SDS011;14316;51.074;3.704;2023-02-28T13:13:21;2.60;;;2.40;;
26702;SDS011;14316;51.074;3.704;2023-02-28T13:16:06;3.60;;;2.90;;
26702;SDS011;14316;51.074;3.704;2023-02-28T13:21:01;5.03;;;2.47;;
26702;SDS011;14316;51.074;3.704;2023-02-28T13:34:31;2.90;;;2.70;;
26702;SDS011;14316;51.074;3.704;2023-02-28T13:39:50;5.75;;;2.60;;
26702;SDS011;14316;51.074;3.704;2023-02-28T13:42:36;4.03;;;2.35;;
26702;SDS011;14316;51.074;3.704;2023-02-28T13:58:45;3.05;;;2.50;;
26702;SDS011;14316;51.074;3.704;2023-02-28T14:03:47;4.22;;;2.35;;
26702;SDS011;14316;51.074;3.704;2023-02-28T14:06:32;6.10;;;3.00;;
26702;SDS011;14316;51.074;3.704;2023-02-28T14:09:03;5.20;;;2.58;;
26702;SDS011;14316;51.074;3.704;2023-02-28T14:11:42;7.00;;;2.50;;
26702;SDS011;14316;51.074;3.704;2023-02-28T14:14:09;4.80;;;2.47;;
26702;SDS011;14316;51.074;3.704;2023-02-28T14:19:29;2.72;;;2.42;;
26702;SDS011;14316;51.074;3.704;2023-02-28T14:38:28;5.65;;;2.90;;
26702;SDS011;14316;51.074;3.704;2023-02-28T14:41:03;3.90;;;2.88;;
26702;SDS011;14316;51.074;3.704;2023-02-28T14:43:46;4.40;;;2.80;;
26702;SDS011;14316;51.074;3.704;2023-02-28T14:46:14;4.10;;;2.95;;
26702;SDS011;14316;51.074;3.704;2023-02-28T14:48:44;5.63;;;3.80;;
26702;SDS011;14316;51.074;3.704;2023-02-28T14:51:18;8.27;;;6.57;;
26702;SDS011;14316;51.074;3.704;2023-02-28T14:53:47;6.00;;;3.20;;
26702;SDS011;14316;51.074;3.704;2023-02-28T14:56:57;6.78;;;2.90;;
26702;SDS011;14316;51.074;3.704;2023-02-28T14:59:05;3.35;;;3.00;;
26702;SDS011;14316;51.074;3.704;2023-02-28T15:02:20;5.22;;;3.20;;
26702;SDS011;14316;51.074;3.704;2023-02-28T15:04:54;6.63;;;3.40;;
26702;SDS011;14316;51.074;3.704;2023-02-28T15:07:22;3.75;;;3.20;;
26702;SDS011;14316;51.074;3.704;2023-02-28T15:10:06;3.15;;;2.80;;
26702;SDS011;14316;51.074;3.704;2023-02-28T15:12:34;5.07;;;2.97;;
26702;SDS011;14316;51.074;3.704;2023-02-28T15:15:01;3.45;;;3.13;;
26702;SDS011;14316;51.074;3.704;2023-02-28T15:17:28;6.32;;;3.72;;
26702;SDS011;14316;51.074;3.704;2023-02-28T15:19:54;6.00;;;3.53;;
26702;SDS011;14316;51.074;3.704;2023-02-28T15:22:23;4.32;;;3.22;;
26702;SDS011;14316;51.074;3.704;2023-02-28T15:24:58;3.78;;;3.47;;
26702;SDS011;14316;51.074;3.704;2023-02-28T15:27:28;4.82;;;3.13;;
26702;SDS011;14316;51.074;3.704;2023-02-28T15:30:00;4.88;;;3.10;;
26702;SDS011;14316;51.074;3.704;2023-02-28T15:32:32;4.22;;;3.45;;
26702;SDS011;14316;51.074;3.704;2023-02-28T15:35:17;4.70;;;3.50;;
26702;SDS011;14316;51.074;3.704;2023-02-28T15:37:52;5.07;;;3.60;;
26702;SDS011;14316;51.074;3.704;2023-02-28T15:40:23;3.95;;;3.40;;
26702;SDS011;14316;51.074;3.704;2023-02-28T15:42:59;5.20;;;3.80;;
26702;SDS011;14316;51.074;3.704;2023-02-28T15:45:32;4.38;;;3.90;;
26702;SDS011;14316;51.074;3.704;2023-02-28T15:48:04;4.63;;;3.70;;
26702;SDS011;14316;51.074;3.704;2023-02-28T15:50:36;5.40;;;4.03;;
26702;SDS011;14316;51.074;3.704;2023-02-28T15:53:03;3.92;;;3.30;;
26702;SDS011;14316;51.074;3.704;2023-02-28T15:55:28;9.95;;;4.00;;
26702;SDS011;14316;51.074;3.704;2023-02-28T15:57:56;4.65;;;3.97;;
26702;SDS011;14316;51.074;3.704;2023-02-28T16:00:25;5.45;;;3.92;;
26702;SDS011;14316;51.074;3.704;2023-02-28T16:02:53;5.20;;;3.60;;
26702;SDS011;14316;51.074;3.704;2023-02-28T16:08:13;5.43;;;4.03;;
26702;SDS011;14316;51.074;3.704;2023-02-28T16:10:40;6.45;;;4.05;;
26702;SDS011;14316;51.074;3.704;2023-02-28T16:13:05;5.20;;;3.70;;
26702;SDS011;14316;51.074;3.704;2023-02-28T16:15:37;6.60;;;3.90;;
26702;SDS011;14316;51.074;3.704;2023-02-28T16:18:07;6.03;;;3.78;;
26702;SDS011;14316;51.074;3.704;2023-02-28T16:20:36;6.38;;;3.95;;
26702;SDS011;14316;51.074;3.704;2023-02-28T16:23:02;7.43;;;4.18;;
26702;SDS011;14316;51.074;3.704;2023-02-28T16:25:38;6.47;;;3.80;;
26702;SDS011;14316;51.074;3.704;2023-02-28T16:28:08;4.35;;;3.95;;
26702;SDS011;14316;51.074;3.704;2023-02-28T16:30:42;4.20;;;3.80;;
26702;SDS011;14316;51.074;3.704;2023-02-28T16:33:08;4.63;;;4.05;;
26702;SDS011;14316;51.074;3.704;2023-02-28T16:35:34;5.07;;;4.20;;
26702;SDS011;14316;51.074;3.704;2023-02-28T16:38:00;4.70;;;4.10;;
26702;SDS011;14316;51.074;3.704;2023-02-28T16:40:26;4.97;;;4.47;;
26702;SDS011;14316;51.074;3.704;2023-02-28T16:42:54;6.13;;;4.57;;
26702;SDS011;14316;51.074;3.704;2023-02-28T16:45:23;5.22;;;4.35;;
26702;SDS011;14316;51.074;3.704;2023-02-28T16:47:51;6.68;;;5.35;;
26702;SDS011;14316;51.074;3.704;2023-02-28T16:50:18;6.47;;;4.63;;
26702;SDS011;14316;51.074;3.704;2023-02-28T16:52:44;8.45;;;4.97;;
26702;SDS011;14316;51.074;3.704;2023-02-28T16:55:09;8.95;;;5.53;;
26702;SDS011;14316;51.074;3.704;2023-02-28T16:57:36;6.00;;;5.15;;
26702;SDS011;14316;51.074;3.704;2023-02-28T17:00:03;7.43;;;5.30;;
26702;SDS011;14316;51.074;3.704;2023-02-28T17:02:29;8.20;;;6.13;;
26702;SDS011;14316;51.074;3.704;2023-02-28T17:04:55;6.05;;;4.97;;
26702;SDS011;14316;51.074;3.704;2023-02-28T17:07:20;11.63;;;6.50;;
26702;SDS011;14316;51.074;3.704;2023-02-28T17:09:46;8.60;;;6.22;;
26702;SDS011;14316;51.074;3.704;2023-02-28T17:12:12;12.23;;;5.35;;
26702;SDS011;14316;51.074;3.704;2023-02-28T17:14:37;7.30;;;5.25;;
26702;SDS011;14316;51.074;3.704;2023-02-28T17:17:04;6.57;;;5.20;;
26702;SDS011;14316;51.074;3.704;2023-02-28T17:19:30;6.10;;;5.47;;
26702;SDS011;14316;51.074;3.704;2023-02-28T17:21:56;7.65;;;5.47;;
26702;SDS011;14316;51.074;3.704;2023-02-28T17:24:21;13.27;;;8.13;;
26702;SDS011;14316;51.074;3.704;2023-02-28T17:26:47;9.93;;;6.75;;
26702;SDS011;14316;51.074;3.704;2023-02-28T17:29:20;9.95;;;5.80;;
26702;SDS011;14316;51.074;3.704;2023-02-28T17:31:46;8.10;;;5.80;;
26702;SDS011;14316;51.074;3.704;2023-02-28T17:34:13;10.15;;;5.82;;
26702;SDS011;14316;51.074;3.704;2023-02-28T17:36:46;13.73;;;7.00;;
26702;SDS011;14316;51.074;3.704;2023-02-28T17:39:14;7.85;;;6.10;;
26702;SDS011;14316;51.074;3.704;2023-02-28T17:41:44;8.70;;;7.25;;